• Join FlightAware (Why Join?)
  • Login
  • US Flag 
03:19AM EDT


 

Airport Tracker/Info


-or-


 

Live Flight TrackerFlight Track Log ✈ AFL150 ✈ 01-Apr-2014 ✈ UUEE / SVO - MUHA / HAV

Flight Track Log - Related Links

Times and Time Zones

All times are in EDT time to prevent confusion due to time zone crossing. See the AFL150 flight status page for this flight to view local times or setup timezone preferences in your user account.

Time Position Orientation Groundspeed Altitude Reporting Facility
EDT Latitude Longitude Course Direction KTS MPH feet Rate Location/Type
06:33AM 56.2191 37.0696 309° West  Level FlightAware Approximate
06:34AM 56.2951 36.8976 309° West  Level FlightAware Approximate
06:35AM 56.3709 36.7248 308° West  Level FlightAware Approximate
06:36AM 56.4465 36.5514 308° West  Level FlightAware Approximate
06:37AM 56.5219 36.3773 308° West  Level FlightAware Approximate
06:38AM 56.5969 36.2025 308° West  Level FlightAware Approximate
06:39AM 56.6718 36.0270 308° West  Level FlightAware Approximate
06:40AM 56.7464 35.8507 308° West  Level FlightAware Approximate
06:41AM 56.8207 35.6739 308° West  Level FlightAware Approximate
06:42AM 56.8948 35.4962 307° West  Level FlightAware Approximate
06:43AM 56.9686 35.3179 307° West  Level FlightAware Approximate
06:44AM 57.0422 35.1389 307° West  Level FlightAware Approximate
06:45AM 57.1156 34.9592 307° West  Level FlightAware Approximate
06:46AM 57.1886 34.7787 307° West  Level FlightAware Approximate
06:47AM 57.2614 34.5976 307° West  Level FlightAware Approximate
06:48AM 57.3340 34.4157 307° West  Level FlightAware Approximate
06:49AM 57.3798 34.3005 307° West  Level FlightAware Approximate
06:50AM 57.4524 34.1181 307° West  Level FlightAware Approximate
06:51AM 57.5247 33.9350 306° West  Level FlightAware Approximate
06:52AM 57.5968 33.7511 306° West  Level FlightAware Approximate
06:53AM 57.6686 33.5666 306° West  Level FlightAware Approximate
06:54AM 57.7401 33.3812 306° West  Level FlightAware Approximate
06:55AM 57.8113 33.1952 306° West  Level FlightAware Approximate
06:56AM 57.8823 33.0084 306° West  Level FlightAware Approximate
06:57AM 57.9530 32.8209 305° West  Level FlightAware Approximate
06:58AM 58.0234 32.6326 305° West  Level FlightAware Approximate
06:59AM 58.0936 32.4437 305° West  Level FlightAware Approximate
07:00AM 58.1635 32.2539 305° West  Level FlightAware Approximate
07:01AM 58.2331 32.0634 305° West  Level FlightAware Approximate
07:02AM 58.3023 31.8722 305° West  Level FlightAware Approximate
07:02AM 56.5191 31.5189 278° West 438 504 34,000  Level FlightAware ADS-B (EVDA / DGP)
07:03AM 56.5366 31.3027 280° West 437 503 34,000  Level FlightAware ADS-B (EVDA / DGP)
07:04AM 56.5709 31.0989 293° West 431 496 34,000  Level FlightAware ADS-B (EVDA / DGP)
07:06AM 56.6256 30.9202 306° West 427 491 34,000  Level FlightAware ADS-B (EVDA / DGP)
07:07AM 56.7194 30.7133 308° West 427 491 34,000  Level FlightAware ADS-B (EVDA / DGP)
07:08AM 56.7843 30.5406 305° West 428 493 34,000  Level FlightAware ADS-B (EVDA / DGP)
07:09AM 56.8513 30.3620 304° West 429 494 34,000  Level FlightAware ADS-B (EVDA / DGP)
07:10AM 56.9195 30.1769 304° West 431 496 34,000  Level FlightAware ADS-B (EVDA / DGP)
07:11AM 56.9909 29.9810 304° West 430 495 34,000  Level FlightAware ADS-B (EVDA / DGP)
07:12AM 57.0820 29.7286 303° West 430 495 34,000  Level FlightAware ADS-B (EVDA / DGP)
07:13AM 57.1470 29.5472 303° West 430 495 34,000  Level FlightAware ADS-B (EVDA / DGP)
07:14AM 57.2152 29.3554 303° West 431 496 34,000  Level FlightAware ADS-B (EVDA / DGP)
07:15AM 57.2779 29.1781 303° West 432 497 34,000  Level FlightAware ADS-B (EVDA / DGP)
07:16AM 57.3462 28.9834 303° West 431 496 34,000  Level FlightAware ADS-B (EVDA / DGP)
07:17AM 57.4105 28.7984 303° West 432 497 34,000  Level FlightAware ADS-B (EVDA / DGP)
07:18AM 57.4750 28.6118 303° West 432 497 34,000  Level FlightAware ADS-B (EVDA / DGP)
07:19AM 57.5394 28.4237 302° West 433 498 34,000  Level FlightAware ADS-B (EVDA / DGP)
07:20AM 57.6024 28.2381 302° West 433 498 34,000  Level FlightAware ADS-B (EVDA / DGP)
07:21AM 57.6648 28.0533 302° West 432 497 34,000  Level FlightAware ADS-B (EVDA / DGP)
07:22AM 57.7264 27.8695 302° West 432 497 34,000  Level FlightAware ADS-B (EVDA / DGP)
07:23AM 57.7915 27.6738 302° West 432 497 34,000  Level FlightAware ADS-B (EVDA / DGP)
07:24AM 57.8346 27.5402 295° West 435 501 34,000  Level FlightAware ADS-B (EVDA / DGP)
07:25AM 57.8780 27.3259 291° West 438 504 34,000  Level FlightAware ADS-B (EVDA / DGP)
07:26AM 57.9216 27.1101 291° West 439 505 34,000  Level FlightAware ADS-B (EVDA / DGP)
07:26AM 57.9432 27.0022 291° West 438 504 34,000  Level FlightAware ADS-B (EVDA / DGP)
07:27AM 57.9651 26.8929 291° West 437 503 34,000  Level FlightAware ADS-B (EVDA / DGP)
07:28AM 58.0025 26.7036 290° West 436 502 34,000  Level FlightAware ADS-B (EVDA / DGP)
07:28AM 58.0276 26.5755 290° West 436 502 34,000  Level FlightAware ADS-B (EVDA / DGP)
07:29AM 58.0683 26.3667 290° West 437 503 34,000  Level FlightAware ADS-B (EVDA / DGP)
07:30AM 58.0903 26.2530 290° West 437 503 34,000  Level FlightAware ADS-B (EVDA / DGP)
07:31AM 58.1341 26.0248 290° West 439 505 34,000  Level FlightAware ADS-B (EVDA / DGP)
07:32AM 58.1849 25.7554 290° West 437 503 34,000  Level FlightAware ADS-B (EVDA / DGP)
07:33AM 58.2321 25.5022 289° West 436 502 34,000  Level FlightAware ADS-B (EVDA / DGP)
07:34AM 58.2702 25.2953 289° West 437 503 34,000  Level FlightAware ADS-B (EVDA / DGP)
07:35AM 58.3002 25.1310 289° West 437 503 34,000  Level FlightAware ADS-B (EVDA / DGP)
07:36AM 58.3322 24.9526 289° West 439 505 34,000  Level FlightAware ADS-B (EVDA / DGP)
07:38AM 58.3002 25.1310 287° West 439 505 34,000  Level FlightAware ADS-B (EVDA / DGP)
07:51AM 58.8286 21.5528 284° West 444 511 34,000  Level FlightAware ADS-B (ESKB)
07:52AM 58.8471 21.4287 284° West 444 511 34,000  Level FlightAware ADS-B (ESKB)
07:52AM 58.8694 21.3051 289° West 437 503 34,000  Level FlightAware ADS-B (ESKB)
07:53AM 58.8970 21.1436 288° West 436 502 34,000  Level FlightAware ADS-B (ESKB)
07:54AM 58.9357 20.9108 288° West 439 505 34,000  Level FlightAware ADS-B (ESKB)
07:55AM 58.9598 20.7630 287° West 440 506 34,000  Level FlightAware ADS-B (ESKB)
07:55AM 58.9823 20.6243 287° West 442 509 34,000  Level FlightAware ADS-B (ESKB)
07:56AM 59.0164 20.4133 287° West 445 512 34,000  Level FlightAware ADS-B (ESKB)
07:57AM 59.0463 20.2243 287° West 441 507 34,000  Level FlightAware ADS-B (ESKB)
07:58AM 59.0686 20.0823 287° West 435 501 34,000  Level FlightAware ADS-B (ESKB)
07:58AM 59.0935 19.9230 287° West 428 493 34,000  Level FlightAware ADS-B (ESKB)
07:59AM 59.1162 19.7753 287° West 427 491 34,000  Level FlightAware ADS-B (ESKB)
08:00AM 59.1382 19.6318 287° West 429 494 34,000  Level FlightAware ADS-B (ESKB)
08:00AM 59.1610 19.4817 286° West 428 493 34,000  Level FlightAware ADS-B (ESKB)
08:01AM 59.1823 19.3404 286° West 427 491 34,000  Level FlightAware ADS-B (ESKB)
08:02AM 59.2049 19.1886 286° West 424 488 34,000  Level FlightAware ADS-B (ESKB)
08:02AM 59.2266 19.0421 286° West 422 486 34,000  Level FlightAware ADS-B (ESKB)
08:03AM 59.2482 18.8949 286° West 421 484 34,000  Level FlightAware ADS-B (ESKB)
08:04AM 59.2689 18.7525 286° West 421 484 34,000 60 Level FlightAware ADS-B (ESKB)
08:04AM 59.2894 18.6104 286° West 425 489 34,100 600 Climbing FlightAware ADS-B (ESKB)
08:05AM 59.3108 18.4597 285° West 424 488 34,800 900 Climbing FlightAware ADS-B (ESKB)
08:06AM 59.3288 18.3325 285° West 425 489 35,300 660 Climbing FlightAware ADS-B (ESKB)
08:06AM 59.3515 18.1708 285° West 428 493 35,700 480 Climbing FlightAware ADS-B (ESKB)
08:07AM 59.3731 18.0150 285° West 432 497 36,000 180 Climbing FlightAware ADS-B (ESKB)
08:08AM 59.3944 17.8605 285° West 431 496 36,000  Level FlightAware ADS-B (ESKB)
08:08AM 59.4147 17.7110 285° West 428 493 36,000  Level FlightAware ADS-B (ESKB)
08:09AM 59.4354 17.5574 285° West 429 494 36,000  Level FlightAware ADS-B (ESKB)
08:10AM 59.4543 17.4162 285° West 426 490 36,000  Level FlightAware ADS-B (ESKB)
08:10AM 59.4736 17.2708 285° West 424 488 36,000  Level FlightAware ADS-B (ESKB)
08:11AM 59.4949 17.1081 284° West 424 488 36,000  Level FlightAware ADS-B (ESKB)
08:12AM 59.5137 16.9631 284° West 426 490 36,000  Level FlightAware ADS-B (ESKB)
08:12AM 59.5333 16.8097 284° West 425 489 36,000  Level FlightAware ADS-B (ESKB)
08:13AM 59.5522 16.6613 284° West 425 489 36,000  Level FlightAware ADS-B (ESKB)
08:14AM 59.5699 16.5205 284° West 424 488 36,000  Level FlightAware ADS-B (ESKB)
08:14AM 59.5879 16.3755 284° West 423 487 36,000  Level FlightAware ADS-B (ESKB)
08:15AM 59.6068 16.2226 284° West 424 488 36,000  Level FlightAware ADS-B (ESKB)
08:16AM 59.6263 16.0619 284° West 424 488 36,000  Level FlightAware ADS-B
08:16AM 59.6407 15.9425 283° West 424 488 36,000  Level FlightAware ADS-B
08:17AM 59.6545 15.8283 283° West 423 487 36,000  Level FlightAware ADS-B
08:17AM 59.6679 15.7152 283° West 424 488 36,000  Level FlightAware ADS-B
08:18AM 59.6814 15.6002 283° West 424 488 36,000  Level FlightAware ADS-B
08:18AM 59.6952 15.4823 282° West 421 484 36,000  Level FlightAware ADS-B
08:19AM 59.7149 15.3125 282° West 421 484 36,000  Level FlightAware ADS-B
08:19AM 59.7290 15.1888 282° West 421 484 36,000  Level FlightAware ADS-B
08:20AM 59.7423 15.0717 282° West 420 483 36,000  Level FlightAware ADS-B
08:21AM 59.7615 14.9009 281° West 419 482 36,000  Level FlightAware ADS-B
08:21AM 59.7743 14.7848 281° West 419 482 36,000  Level FlightAware ADS-B
08:22AM 59.7867 14.6716 281° West 420 483 36,000  Level FlightAware ADS-B
08:22AM 59.7995 14.5543 281° West 420 483 36,000  Level FlightAware ADS-B
08:23AM 59.8121 14.4382 281° West 421 484 36,000  Level FlightAware ADS-B
08:23AM 59.8243 14.3244 281° West 422 486 36,000  Level FlightAware ADS-B
08:24AM 59.8368 14.2068 281° West 424 488 36,000  Level FlightAware ADS-B
08:24AM 59.8490 14.0912 281° West 425 489 36,000  Level FlightAware ADS-B
08:25AM 59.8610 13.9760 282° West 426 490 36,000  Level FlightAware ADS-B
08:27AM 59.9209 13.5882 287° West  Level Estimated
08:28AM 59.9563 13.3548 287° West  Level Estimated
08:29AM 59.9913 13.1210 287° West  Level Estimated
08:30AM 60.0259 12.8866 287° West  Level Estimated
08:31AM 60.0600 12.6518 286° West  Level Estimated
08:32AM 60.0938 12.4164 286° West  Level Estimated
08:33AM 60.1271 12.1806 286° West  Level Estimated
08:34AM 60.1600 11.9444 286° West  Level Estimated
08:35AM 60.1924 11.7076 286° West  Level Estimated
08:36AM 60.2245 11.4704 285° West  Level Estimated
08:37AM 60.2561 11.2327 285° West  Level Estimated
08:38AM 60.2873 10.9946 285° West  Level Estimated
08:39AM 60.3181 10.7560 285° West  Level Estimated
08:40AM 60.3484 10.5169 284° West  Level Estimated
08:41AM 60.3784 10.2775 284° West  Level Estimated
08:42AM 60.4079 10.0376 284° West  Level Estimated
08:43AM 60.4369 9.7972 284° West  Level Estimated
08:44AM 60.4655 9.5564 284° West  Level Estimated
08:45AM 60.4937 9.3153 283° West  Level Estimated
08:46AM 60.5215 9.0736 283° West  Level Estimated
08:47AM 60.5488 8.8316 283° West  Level Estimated
08:48AM 60.5757 8.5892 283° West  Level Estimated
08:49AM 60.6021 8.3464 283° West  Level Estimated
08:50AM 60.6281 8.1032 282° West  Level Estimated
08:51AM 60.6536 7.8595 282° West  Level Estimated
08:52AM 60.6788 7.6155 282° West  Level Estimated
08:53AM 60.7034 7.3712 282° West  Level Estimated
08:54AM 60.7276 7.1264 282° West  Level Estimated
08:55AM 60.7514 6.8813 281° West  Level Estimated
08:56AM 60.7747 6.6358 281° West  Level Estimated
08:57AM 60.7976 6.3900 281° West  Level Estimated
08:58AM 60.8200 6.1438 281° West  Level Estimated
08:59AM 60.8420 5.8973 280° West  Level Estimated
09:00AM 60.8635 5.6505 280° West  Level Estimated
09:01AM 60.8846 5.4033 280° West  Level Estimated
09:02AM 60.9052 5.1558 280° West  Level Estimated
09:03AM 60.9254 4.9080 280° West  Level Estimated
09:04AM 60.9451 4.6599 279° West  Level Estimated
09:05AM 60.9644 4.4114 279° West  Level Estimated
09:06AM 60.9832 4.1627 279° West  Level Estimated
09:07AM 61.0015 3.9137 279° West  Level Estimated
09:08AM 61.0194 3.6644 279° West  Level Estimated
09:09AM 61.0368 3.4148 278° West  Level Estimated
09:10AM 61.0537 3.1649 278° West  Level Estimated
09:11AM 61.0702 2.9148 278° West  Level Estimated
09:12AM 61.0863 2.6644 278° West  Level Estimated
09:13AM 61.1018 2.4138 277° West  Level Estimated
09:14AM 61.1169 2.1629 277° West  Level Estimated
09:15AM 61.1316 1.9118 277° West  Level Estimated
09:16AM 61.1457 1.6605 277° West  Level Estimated
09:17AM 61.1594 1.4089 277° West  Level Estimated
09:18AM 61.1727 1.1572 276° West  Level Estimated
09:19AM 61.1854 0.9052 276° West  Level Estimated
09:20AM 61.1977 0.6530 276° West  Level Estimated
09:21AM 61.2096 0.4006 276° West  Level Estimated
09:22AM 61.2209 0.1481 275° West  Level Estimated
09:23AM 61.2318 -0.1046 275° West  Level Estimated
09:24AM 61.2422 -0.3575 275° West  Level Estimated
09:25AM 61.2522 -0.6106 275° West  Level Estimated
09:26AM 61.2617 -0.8638 275° West  Level Estimated
09:27AM 61.2707 -1.1172 274° West  Level Estimated
09:28AM 61.2792 -1.3707 274° West  Level Estimated
09:29AM 61.2873 -1.6244 274° West  Level Estimated
09:30AM 61.2949 -1.8782 274° West  Level Estimated
09:31AM 61.3020 -2.1321 273° West  Level Estimated
09:32AM 61.3086 -2.3861 273° West  Level Estimated
09:33AM 61.3148 -2.6402 273° West  Level Estimated
09:34AM 61.3205 -2.8944 273° West  Level Estimated
09:35AM 61.3257 -3.1487 273° West  Level Estimated
09:36AM 61.3304 -3.4031 272° West  Level Estimated
09:37AM 61.3347 -3.6575 272° West  Level Estimated
09:38AM 61.3385 -3.9121 272° West  Level Estimated
09:39AM 61.3418 -4.1666 272° West  Level Estimated
09:40AM 61.3446 -4.4212 271° West  Level Estimated
09:41AM 61.3470 -4.6759 271° West  Level Estimated
09:42AM 61.3489 -4.9306 271° West  Level Estimated
09:43AM 61.3503 -5.1853 271° West  Level Estimated
09:44AM 61.3512 -5.4401 271° West  Level Estimated
09:45AM 61.3517 -5.6948 270° West  Level Estimated
09:46AM 61.3517 -5.9496 270° West  Level Estimated
09:47AM 61.3512 -6.2044 270° West  Level Estimated
09:48AM 61.3502 -6.4591 270° West  Level Estimated
09:49AM 61.3487 -6.7138 269° West  Level Estimated
09:50AM 61.3468 -6.9685 269° West  Level Estimated
09:51AM 61.3444 -7.2232 269° West  Level Estimated
09:52AM 61.3415 -7.4778 269° West  Level Estimated
09:53AM 61.3382 -7.7324 269° West  Level Estimated
09:54AM 61.3343 -7.9869 268° West  Level Estimated
09:55AM 61.3300 -8.2414 268° West  Level Estimated
09:56AM 61.3252 -8.4957 268° West  Level Estimated
09:57AM 61.3200 -8.7500 268° West  Level Estimated
09:58AM 61.3142 -9.0042 267° West  Level Estimated
09:59AM 61.3080 -9.2583 267° West  Level Estimated
10:00AM 61.3013 -9.5123 267° West  Level Estimated
10:01AM 61.2942 -9.7662 267° West  Level Estimated
10:02AM 61.2866 -10.0200 267° West  Level Estimated
10:03AM 61.2785 -10.2736 266° West  Level Estimated
10:04AM 61.2699 -10.5271 266° West  Level Estimated
10:05AM 61.2608 -10.7805 266° West  Level Estimated
10:06AM 61.2513 -11.0337 266° West  Level Estimated
10:07AM 61.2413 -11.2867 265° West  Level Estimated
10:08AM 61.2309 -11.5396 265° West  Level Estimated
10:09AM 61.2199 -11.7924 265° West  Level Estimated
10:10AM 61.2085 -12.0449 265° West  Level Estimated
10:11AM 61.1966 -12.2972 265° West  Level Estimated
10:12AM 61.1843 -12.5494 264° West  Level Estimated
10:13AM 61.1715 -12.8014 264° West  Level Estimated
10:14AM 61.1582 -13.0531 264° West  Level Estimated
10:15AM 61.1445 -13.3047 264° West  Level Estimated
10:16AM 61.1302 -13.5560 263° West  Level Estimated
10:17AM 61.1156 -13.8070 263° West  Level Estimated
10:18AM 61.1004 -14.0579 263° West  Level Estimated
10:19AM 61.0848 -14.3085 263° West  Level Estimated
10:20AM 61.0687 -14.5589 263° West  Level Estimated
10:21AM 61.0522 -14.8089 262° West  Level Estimated
10:22AM 61.0352 -15.0588 262° West  Level Estimated
10:23AM 61.0177 -15.3083 262° West  Level Estimated
10:24AM 60.9998 -15.5576 262° West  Level Estimated
10:25AM 60.9815 -15.8066 261° West  Level Estimated
10:26AM 60.9626 -16.0553 261° West  Level Estimated
10:27AM 60.9433 -16.3037 261° West  Level Estimated
10:28AM 60.9236 -16.5518 261° West  Level Estimated
10:29AM 60.9034 -16.7996 261° West  Level Estimated
10:30AM 60.8827 -17.0471 260° West  Level Estimated
10:31AM 60.8616 -17.2942 260° West  Level Estimated
10:32AM 60.8400 -17.5410 260° West  Level Estimated
10:33AM 60.8180 -17.7875 260° West  Level Estimated
10:34AM 60.7956 -18.0337 260° West  Level Estimated
10:35AM 60.7726 -18.2795 259° West  Level Estimated
10:36AM 60.7493 -18.5249 259° West  Level Estimated
10:37AM 60.7254 -18.7700 259° West  Level Estimated
10:38AM 60.7012 -19.0147 259° West  Level Estimated
10:39AM 60.6765 -19.2590 258° West  Level Estimated
10:40AM 60.6513 -19.5030 258° West  Level Estimated
10:41AM 60.6257 -19.7466 258° West  Level Estimated
10:42AM 60.5997 -19.9897 258° West  Level Estimated
10:43AM 60.5732 -20.2325 258° West  Level Estimated
10:44AM 60.5463 -20.4749 257° West  Level Estimated
10:45AM 60.5190 -20.7169 257° West  Level Estimated
10:46AM 60.4912 -20.9585 257° West  Level Estimated
10:47AM 60.4629 -21.1996 257° West  Level Estimated
10:48AM 60.4343 -21.4404 257° West  Level Estimated
10:49AM 60.4052 -21.6807 256° West  Level Estimated
10:50AM 60.3756 -21.9206 256° West  Level Estimated
10:51AM 60.3457 -22.1600 256° West  Level Estimated
10:52AM 60.3153 -22.3990 256° West  Level Estimated
10:53AM 60.2845 -22.6375 255° West  Level Estimated
10:54AM 60.2533 -22.8756 255° West  Level Estimated
10:55AM 60.2216 -23.1133 255° West  Level Estimated
10:56AM 60.1895 -23.3504 255° West  Level Estimated
10:57AM 60.1570 -23.5872 255° West  Level Estimated
10:58AM 60.1240 -23.8234 254° West  Level Estimated
10:59AM 60.0907 -24.0592 254° West  Level Estimated
11:00AM 60.0569 -24.2944 254° West  Level Estimated
11:01AM 60.0227 -24.5292 254° West  Level Estimated
11:02AM 59.9881 -24.7635 254° West  Level Estimated
11:03AM 59.9531 -24.9974 253° West  Level Estimated
11:04AM 59.9177 -25.2307 253° West  Level Estimated
11:05AM 59.8818 -25.4635 253° West  Level Estimated
11:06AM 59.8456 -25.6958 253° West  Level Estimated
11:07AM 59.8089 -25.9276 253° West  Level Estimated
11:08AM 59.7718 -26.1589 252° West  Level Estimated
11:09AM 59.7343 -26.3897 252° West  Level Estimated
11:10AM 59.6965 -26.6200 252° West  Level Estimated
11:11AM 59.6582 -26.8497 252° West  Level Estimated
11:12AM 59.6195 -27.0789 252° West  Level Estimated
11:13AM 59.5804 -27.3076 251° West  Level Estimated
11:14AM 59.5410 -27.5357 251° West  Level Estimated
11:15AM 59.5011 -27.7633 251° West  Level Estimated
11:16AM 59.4608 -27.9904 251° West  Level Estimated
11:17AM 59.4202 -28.2169 251° West  Level Estimated
11:18AM 59.3791 -28.4429 250° West  Level Estimated
11:19AM 59.3377 -28.6684 250° West  Level Estimated
11:20AM 59.2958 -28.8932 250° West  Level Estimated
11:21AM 59.2536 -29.1176 250° West  Level Estimated
11:22AM 59.2110 -29.3413 250° West  Level Estimated
11:23AM 59.1680 -29.5645 249° West  Level Estimated
11:24AM 59.1246 -29.7872 249° West  Level Estimated
11:25AM 59.0809 -30.0093 249° West  Level Estimated
11:26AM 59.0368 -30.2308 249° West  Level Estimated
11:27AM 58.9923 -30.4517 249° West  Level Estimated
11:28AM 58.9474 -30.6721 249° West  Level Estimated
11:29AM 58.9021 -30.8919 248° West  Level Estimated
11:30AM 58.8565 -31.1111 248° West  Level Estimated
11:31AM 58.8105 -31.3297 248° West  Level Estimated
11:32AM 58.7642 -31.5478 248° West  Level Estimated
11:33AM 58.7174 -31.7653 248° West  Level Estimated
11:34AM 58.6703 -31.9821 247° West  Level Estimated
11:35AM 58.6229 -32.1984 247° West  Level Estimated
11:36AM 58.5751 -32.4142 247° West  Level Estimated
11:37AM 58.5269 -32.6293 247° West  Level Estimated
11:38AM 58.4784 -32.8438 247° West  Level Estimated
11:39AM 58.4295 -33.0577 246° West  Level Estimated
11:40AM 58.3802 -33.2711 246° West  Level Estimated
11:41AM 58.3306 -33.4838 246° West  Level Estimated
11:42AM 58.2806 -33.6960 246° West  Level Estimated
11:43AM 58.2303 -33.9075 246° West  Level Estimated
11:44AM 58.1797 -34.1185 246° West  Level Estimated
11:45AM 58.1287 -34.3288 245° Southwest  Level Estimated
11:46AM 58.0773 -34.5385 245° Southwest  Level Estimated
11:47AM 58.0256 -34.7477 245° Southwest  Level Estimated
11:48AM 57.9736 -34.9562 245° Southwest  Level Estimated
11:49AM 57.9212 -35.1641 245° Southwest  Level Estimated
11:50AM 57.8685 -35.3714 245° Southwest  Level Estimated
11:51AM 57.8155 -35.5781 244° Southwest  Level Estimated
11:52AM 57.7621 -35.7842 244° Southwest  Level Estimated
11:53AM 57.7084 -35.9897 244° Southwest  Level Estimated
11:54AM 57.6543 -36.1946 244° Southwest  Level Estimated
11:55AM 57.5999 -36.3988 244° Southwest  Level Estimated
11:56AM 57.5452 -36.6025 243° Southwest  Level Estimated
11:57AM 57.4902 -36.8055 243° Southwest  Level Estimated
11:58AM 57.4348 -37.0079 243° Southwest  Level Estimated
11:59AM 57.3791 -37.2098 243° Southwest  Level Estimated
12:00PM 57.3231 -37.4110 243° Southwest  Level Estimated
12:01PM 57.2668 -37.6115 243° Southwest  Level Estimated
12:02PM 57.2102 -37.8115 242° Southwest  Level Estimated
12:03PM 57.1532 -38.0109 242° Southwest  Level Estimated
12:04PM 57.0959 -38.2096 242° Southwest  Level Estimated
12:05PM 57.0383 -38.4077 242° Southwest  Level Estimated
12:06PM 56.9804 -38.6052 242° Southwest  Level Estimated
12:07PM 56.9222 -38.8021 242° Southwest  Level Estimated
12:08PM 56.8637 -38.9984 241° Southwest  Level Estimated
12:09PM 56.8049 -39.1941 241° Southwest  Level Estimated
12:10PM 56.7458 -39.3891 241° Southwest  Level Estimated
12:11PM 56.6863 -39.5836 241° Southwest  Level Estimated
12:12PM 56.6266 -39.7774 241° Southwest  Level Estimated
12:13PM 56.5665 -39.9706 241° Southwest  Level Estimated
12:14PM 56.5062 -40.1632 240° Southwest  Level Estimated
12:15PM 56.4456 -40.3552 240° Southwest  Level Estimated
12:16PM 56.3846 -40.5466 240° Southwest  Level Estimated
12:17PM 56.3234 -40.7373 240° Southwest  Level Estimated
12:18PM 56.2619 -40.9274 240° Southwest  Level Estimated
12:19PM 56.2001 -41.1170 240° Southwest  Level Estimated
12:20PM 56.1380 -41.3059 240° Southwest  Level Estimated
12:21PM 56.0756 -41.4942 239° Southwest  Level Estimated
12:22PM 56.0130 -41.6819 239° Southwest  Level Estimated
12:23PM 55.9500 -41.8690 239° Southwest  Level Estimated
12:24PM 55.8868 -42.0555 239° Southwest  Level Estimated
12:25PM 55.8233 -42.2413 239° Southwest  Level Estimated
12:26PM 55.7595 -42.4266 239° Southwest  Level Estimated
12:27PM 55.6954 -42.6113 238° Southwest  Level Estimated
12:28PM 55.6311 -42.7953 238° Southwest  Level Estimated
12:29PM 55.5664 -42.9788 238° Southwest  Level Estimated
12:30PM 55.5015 -43.1616 238° Southwest  Level Estimated
12:31PM 55.4364 -43.3439 238° Southwest  Level Estimated
12:32PM 55.3709 -43.5255 238° Southwest  Level Estimated
12:33PM 55.3052 -43.7065 238° Southwest  Level Estimated
12:34PM 55.2393 -43.8870 237° Southwest  Level Estimated
12:35PM 55.1730 -44.0668 237° Southwest  Level Estimated
12:36PM 55.1065 -44.2461 237° Southwest  Level Estimated
12:37PM 55.0398 -44.4247 237° Southwest  Level Estimated
12:38PM 54.9727 -44.6028 237° Southwest  Level Estimated
12:39PM 54.9054 -44.7802 237° Southwest  Level Estimated
12:40PM 54.8379 -44.9571 237° Southwest  Level Estimated
12:41PM 54.7701 -45.1334 236° Southwest  Level Estimated
12:42PM 54.7021 -45.3090 236° Southwest  Level Estimated
12:43PM 54.6338 -45.4841 236° Southwest  Level Estimated
12:44PM 54.5652 -45.6586 236° Southwest  Level Estimated
12:45PM 54.4964 -45.8325 236° Southwest  Level Estimated
12:46PM 54.4273 -46.0059 236° Southwest  Level Estimated
12:47PM 54.3580 -46.1786 236° Southwest  Level Estimated
12:48PM 54.2885 -46.3508 235° Southwest  Level Estimated
12:49PM 54.2187 -46.5224 235° Southwest  Level Estimated
12:50PM 54.1487 -46.6934 235° Southwest  Level Estimated
12:51PM 54.0784 -46.8638 235° Southwest  Level Estimated
12:52PM 54.0079 -47.0336 235° Southwest  Level Estimated
12:53PM 53.9371 -47.2029 235° Southwest  Level Estimated
12:54PM 53.8673 -47.3688 235° Southwest  Level Estimated
12:55PM 53.7972 -47.5343 234° Southwest  Level Estimated
12:55PM 58.3667 -55.6833 234° Southwest 430 495 37,000  Level Gander Center
12:56PM 53.7268 -47.6993 234° Southwest  Level Estimated
12:56PM 58.3333 -55.8833 252° West 430 495 37,000  Level Gander Center
12:57PM 53.6563 -47.8637 234° Southwest  Level Estimated
12:57PM 58.2500 -56.0833 232° Southwest 430 495 37,000  Level Gander Center
12:58PM 53.5855 -48.0276 234° Southwest  Level Estimated
12:58PM 58.2000 -56.2833 245° Southwest 430 495 37,000  Level Gander Center
12:59PM 53.5145 -48.1909 234° Southwest  Level Estimated
12:59PM 58.1333 -56.4500 233° Southwest 430 495 37,000  Level Gander Center
01:00PM 53.4433 -48.3535 234° Southwest  Level Estimated
01:00PM 58.0667 -56.6833 242° Southwest 430 495 37,000  Level Gander Center
01:01PM 58.0333 -56.8667 251° West 430 495 37,000  Level Gander Center
01:02PM 57.9667 -57.0667 238° Southwest 430 495 37,000  Level Gander Center
01:03PM 57.9167 -57.2667 245° Southwest 430 495 37,000  Level Gander Center
01:04PM 57.8500 -57.4667 238° Southwest 430 495 37,000  Level Gander Center
01:05PM 57.8000 -57.6500 243° Southwest 430 495 37,000  Level Gander Center
01:06PM 57.7500 -57.8500 245° Southwest 420 483 37,000  Level Gander Center
01:07PM 57.6333 -58.2000 238° Southwest 430 495 37,000  Level Gander Center
01:08PM 57.5833 -58.3833 243° Southwest 420 483 37,000 -240 Level Gander Center
01:09PM 57.5333 -58.5833 245° Southwest 420 483 36,600 -480 Descending Gander Center
01:11PM 57.4000 -58.7500 214° Southwest 430 495 36,000 -300 Descending Gander Center
01:12PM 57.3000 -58.8500 208° Southwest 440 506 36,000  Level Gander Center
01:13PM 57.2000 -58.9667 212° Southwest 440 506 36,000  Level Gander Center
01:14PM 57.1000 -59.1000 216° Southwest 440 506 36,000  Level Gander Center
01:15PM 56.9833 -59.2667 218° Southwest 420 483 36,000  Level Gander Center
01:16PM 56.8833 -59.3833 213° Southwest 420 483 36,000  Level Gander Center
01:17PM 56.7833 -59.4833 209° Southwest 430 495 36,000  Level Gander Center
01:18PM 56.7000 -59.6167 221° Southwest 430 495 36,000  Level Gander Center
01:19PM 56.6000 -59.7333 213° Southwest 430 495 36,000  Level Gander Center
01:20PM 56.5000 -59.8667 216° Southwest 430 495 36,000  Level Gander Center
01:21PM 56.4000 -59.9833 213° Southwest 430 495 36,000  Level Gander Center
01:22PM 56.3000 -60.1167 217° Southwest 430 495 36,000  Level Gander Center
01:23PM 56.2000 -60.2333 213° Southwest 440 506 36,000  Level Gander Center
01:24PM 56.1000 -60.3500 213° Southwest 440 506 36,000  Level Gander Center
01:25PM 56.0000 -60.4833 217° Southwest 430 495 36,000  Level Gander Center
01:26PM 55.9000 -60.6000 213° Southwest 430 495 36,000  Level Gander Center
01:27PM 55.8000 -60.6833 205° Southwest 430 495 36,000  Level Gander Center
01:28PM 55.7000 -60.8000 213° Southwest 430 495 36,000  Level Gander Center
01:29PM 55.6000 -60.9333 217° Southwest 430 495 36,000  Level Gander Center
01:30PM 55.5000 -61.0500 213° Southwest 430 495 36,000  Level Gander Center
01:31PM 55.4000 -61.1667 214° Southwest 430 495 36,000  Level Gander Center
01:32PM 55.3000 -61.2833 214° Southwest 430 495 36,000  Level Gander Center
01:33PM 55.2000 -61.3667 205° Southwest 430 495 36,000  Level Gander Center
01:34PM 55.1000 -61.5167 221° Southwest 430 495 36,000  Level Gander Center
01:35PM 55.0000 -61.6000 206° Southwest 420 483 36,000  Level Gander Center
01:36PM 54.9000 -61.7167 214° Southwest 430 495 36,000  Level Gander Center
01:37PM 54.8000 -61.8333 214° Southwest 420 483 36,000  Level Gander Center
01:38PM 54.7000 -61.9500 214° Southwest 430 495 36,000  Level Gander Center
01:39PM 54.6000 -62.0667 214° Southwest 430 495 36,000  Level Gander Center
01:40PM 54.5000 -62.1667 210° Southwest 430 495 36,000  Level Gander Center
01:41PM 54.4000 -62.2833 214° Southwest 430 495 36,000  Level Gander Center
01:42PM 54.3000 -62.3667 206° Southwest 430 495 36,000  Level Gander Center
01:43PM 54.2000 -62.4833 214° Southwest 430 495 36,000  Level Gander Center
01:44PM 54.0833 -62.6000 210° Southwest 430 495 36,000  Level Gander Center
01:45PM 53.9167 -62.7833 213° Southwest 430 495 36,000  Level Gander Center
01:46PM 53.8000 -62.9000 211° Southwest 430 495 36,000  Level Gander Center
01:47PM 53.7500 -62.9500 211° Southwest 430 495 36,000  Level Moncton Center
01:48PM 53.6833 -63.0333 217° Southwest 430 495 36,000  Level Gander Center
01:49PM 53.5833 -63.1333 211° Southwest 430 495 36,000  Level Gander Center
01:50PM 53.4667 -63.2500 211° Southwest 430 495 36,000  Level Gander Center
01:51PM 53.3833 -63.3333 211° Southwest 430 495 36,000  Level Gander Center
01:52PM 53.2833 -63.4333 211° Southwest 420 483 36,000  Level Gander Center
01:53PM 53.1667 -63.5333 207° Southwest 420 483 36,000  Level Gander Center
01:54PM 53.0667 -63.6500 215° Southwest 420 483 36,000  Level Gander Center
01:55PM 52.9667 -63.7500 211° Southwest 420 483 36,000  Level Gander Center
01:56PM 52.8667 -63.8333 207° Southwest 420 483 36,000  Level Gander Center
01:57PM 52.7667 -63.9333 211° Southwest 420 483 36,000  Level Gander Center
01:58PM 52.6833 -64.0333 216° Southwest 420 483 36,000 -120 Level Gander Center
02:00PM 52.4500 -64.2500 210° Southwest 430 495 35,700 -300 Descending Gander Center
02:01PM 52.3500 -64.3167 202° Southwest 430 495 35,200 -360 Descending Gander Center
02:02PM 52.2167 -64.4500 212° Southwest 440 506 35,000 -120 Descending Moncton Center
02:03PM 52.1500 -64.5333 218° Southwest 440 506 35,000  Level Gander Center
02:04PM 52.0500 -64.6333 212° Southwest 440 506 35,000  Level Gander Center
02:05PM 51.9500 -64.7333 212° Southwest 440 506 35,000  Level Gander Center
02:06PM 51.8000 -64.8500 206° Southwest 440 506 35,000  Level Moncton Center
02:07PM 51.7333 -64.9333 218° Southwest 430 495 35,000  Level Gander Center
02:08PM 51.6167 -65.0333 208° Southwest 430 495 35,000  Level Gander Center
02:09PM 51.5167 -65.1333 212° Southwest 440 506 35,000  Level Gander Center
02:10PM 51.4000 -65.2167 204° Southwest 440 506 35,000  Level Gander Center
02:11PM 51.3000 -65.3167 212° Southwest 440 506 35,000  Level Gander Center
02:12PM 51.2000 -65.4167 212° Southwest 440 506 35,000  Level Gander Center
02:13PM 51.0667 -65.5500 212° Southwest 440 506 35,000  Level Moncton Center
02:14PM 50.9500 -65.6500 208° Southwest 450 518 35,000  Level Moncton Center
02:15PM 50.8333 -65.7167 200° South 450 518 35,000  Level Moncton Center
02:16PM 50.7333 -65.8333 216° Southwest 450 518 35,000  Level Moncton Center
02:17PM 50.6167 -65.9333 209° Southwest 450 518 35,000  Level Moncton Center
02:18PM 50.5167 -66.0333 212° Southwest 450 518 35,000  Level Moncton Center
02:19PM 50.4000 -66.1000 200° South 450 518 35,000  Level Moncton Center
02:20PM 50.3000 -66.2000 213° Southwest 450 518 35,000  Level Moncton Center
02:21PM 50.1833 -66.3000 209° Southwest 450 518 35,000  Level Moncton Center
02:22PM 50.1000 -66.3333 194° South 460 529 35,000  Level Gander Center
02:23PM 49.9667 -66.4000 198° South 460 529 35,000  Level Gander Center
02:24PM 49.8500 -66.4667 200° South 460 529 35,000  Level Gander Center
02:25PM 49.7333 -66.5667 209° Southwest 460 529 35,000  Level Gander Center
02:26PM 49.6167 -66.6333 200° South 460 529 35,000  Level Gander Center
02:27PM 49.4833 -66.6833 194° South 460 529 35,000  Level Gander Center
02:28PM 49.3667 -66.7500 200° South 460 529 35,000  Level Gander Center
02:29PM 49.2500 -66.8167 200° South 460 529 35,000  Level Gander Center
02:30PM 49.1333 -66.8833 201° Southwest 470 541 35,000  Level Gander Center
02:31PM 49.0167 -66.9500 201° Southwest 470 541 35,000  Level Gander Center
02:32PM 48.8667 -67.0000 192° South 470 541 35,000  Level Gander Center
02:33PM 48.7500 -67.0833 205° Southwest 480 552 35,000  Level Gander Center
02:34PM 48.6333 -67.1500 201° Southwest 480 552 35,000  Level Gander Center
02:35PM 48.5167 -67.2167 201° Southwest 480 552 35,000  Level Gander Center
02:36PM 48.3833 -67.2667 194° South 470 541 35,000  Level Gander Center
02:37PM 48.2500 -67.3333 198° South 480 552 35,000  Level Gander Center
02:38PM 48.1333 -67.4167 205° Southwest 480 552 35,000  Level Gander Center
02:44PM 47.3820 -67.8409 210° Southwest 478 550 35,000  Level FlightAware ADS-B (CYSG)
02:44PM 47.3232 -67.8913 210° Southwest 480 552 35,000  Level FlightAware ADS-B (CYSG)
02:45PM 47.2353 -67.9668 210° Southwest 480 552 35,000  Level FlightAware ADS-B (CYSG)
02:46PM 47.1608 -68.0311 210° Southwest 477 549 35,000  Level Boston Center
02:52PM 46.4816 -68.5997 210° Southwest 489 563 35,000  Level FlightAware ADS-B (CYSG)
02:52PM 46.4263 -68.6453 210° Southwest 489 563 35,000  Level FlightAware ADS-B (CYSG)
02:53PM 46.3593 -68.7003 210° Southwest 488 562 35,000  Level FlightAware ADS-B (CYSG)
02:53PM 46.2984 -68.7504 210° Southwest 488 562 35,000  Level FlightAware ADS-B (CYSG)
02:54PM 46.2145 -68.8190 210° Southwest 486 559 35,000  Level FlightAware ADS-B (CYSG)
02:54PM 46.1557 -68.8671 210° Southwest 487 560 35,000  Level FlightAware ADS-B (CYSG)
02:55PM 46.0645 -68.9411 210° Southwest 487 560 35,000  Level FlightAware ADS-B (CYSG)
02:56PM 46.0048 -68.9894 209° Southwest 485 558 35,000  Level FlightAware ADS-B (CYSG)
02:56PM 45.9212 -69.0568 209° Southwest 485 558 35,000  Level FlightAware ADS-B (CYSG)
02:57PM 45.8631 -69.1035 209° Southwest 481 554 35,000  Level FlightAware ADS-B (CYSG)
02:58PM 45.7818 -69.1689 209° Southwest 484 557 35,000  Level FlightAware ADS-B (CYSG)
02:58PM 45.7227 -69.2161 209° Southwest 484 557 35,000  Level FlightAware ADS-B (CYSG)
02:59PM 45.6378 -69.2839 209° Southwest 485 558 35,000  Level FlightAware ADS-B (CYSG)
02:59PM 45.5794 -69.3304 209° Southwest 484 557 35,000  Level FlightAware ADS-B (CYSG)
03:00PM 45.5066 -69.3882 209° Southwest 482 555 35,000  Level FlightAware ADS-B (CYQI)
03:01PM 45.4356 -69.4444 209° Southwest 482 555 35,000  Level FlightAware ADS-B
03:01PM 45.3605 -69.5035 209° Southwest 481 554 35,000  Level FlightAware ADS-B
03:02PM 45.3024 -69.5494 209° Southwest 483 556 35,000  Level FlightAware ADS-B (CYSG)
03:02PM 45.2446 -69.5947 209° Southwest 482 555 35,000  Level FlightAware ADS-B (CYSG)
03:03PM 45.1797 -69.6455 209° Southwest 478 550 35,000  Level FlightAware ADS-B (CYSG)
03:03PM 45.1036 -69.7049 209° Southwest 477 549 35,000  Level FlightAware ADS-B (CYSG)
03:04PM 45.0317 -69.7609 209° Southwest 475 547 35,000  Level FlightAware ADS-B (CYSG)
03:05PM 44.9562 -69.8194 209° Southwest 476 548 35,000  Level FlightAware ADS-B (CYSG)
03:05PM 44.8902 -69.8705 209° Southwest 479 551 35,000 240 Level FlightAware ADS-B (CYSG)
03:06PM 44.8134 -69.9296 209° Southwest 482 555 35,300 720 Climbing FlightAware ADS-B (CYSG)
03:06PM 44.7531 -69.9759 209° Southwest 473 544 35,900 540 Climbing FlightAware ADS-B (CYSG)
03:07PM 44.6853 -70.0281 209° Southwest 471 542 36,000 60 Climbing FlightAware ADS-B (CYQI)
03:08PM 44.6484 -70.0564 209° Southwest 476 548 36,000  Level FlightAware ADS-B (CYQI)
03:08PM 44.5863 -70.1038 209° Southwest 477 549 36,000  Level FlightAware ADS-B (CYSG)
03:09PM 44.5250 -70.1507 209° Southwest 476 548 36,000  Level FlightAware ADS-B (CYSG)
03:09PM 44.4248 -70.2268 209° Southwest 479 551 36,000  Level FlightAware ADS-B (CYQI)
03:10PM 44.3474 -70.2854 208° Southwest 481 554 36,000  Level FlightAware ADS-B (CYQI)
03:10PM 44.2941 -70.3257 208° Southwest 481 554 36,000  Level FlightAware ADS-B (CYQI)
03:11PM 44.2341 -70.3710 208° Southwest 481 554 36,000  Level FlightAware ADS-B (CYQI)
03:11PM 44.1903 -70.4039 209° Southwest 474 545 36,000  Level FlightAware ADS-B (KASH)
03:11PM 44.1595 -70.4270 209° Southwest 474 545 36,000  Level FlightAware ADS-B (KASH)
03:12PM 44.0895 -70.4795 208° Southwest 480 552 36,000  Level FlightAware ADS-B (CYQI)
03:13PM 44.0392 -70.5172 208° Southwest 480 552 36,000  Level FlightAware ADS-B (KBOS)
03:13PM 44.0204 -70.5312 209° Southwest 474 545 36,000  Level FlightAware ADS-B (KASH)
03:13PM 43.9548 -70.5802 208° Southwest 482 555 36,000  Level FlightAware ADS-B (KBOS)
03:14PM 43.8928 -70.6263 208° Southwest 483 556 36,000  Level FlightAware ADS-B (KBOS)
03:14PM 43.8218 -70.6789 208° Southwest 483 556 36,000  Level FlightAware ADS-B (KBOS)
03:15PM 43.7434 -70.7369 209° Southwest 475 547 36,000  Level FlightAware ADS-B (KASH)
03:15PM 43.6973 -70.7709 209° Southwest 474 545 36,000  Level FlightAware ADS-B (KASH)
03:16PM 43.6560 -70.8020 209° Southwest 480 552 36,000  Level FlightAware ADS-B
03:16PM 43.6373 -70.8151 209° Southwest 473 544 36,000  Level FlightAware ADS-B (KASH)
03:16PM 43.5730 -70.8623 208° Southwest 480 552 36,000  Level FlightAware ADS-B (KBOS)
03:17PM 43.5390 -70.8870 209° Southwest 480 552 36,000  Level FlightAware ADS-B
03:17PM 43.5008 -70.9152 208° Southwest 479 551 36,000  Level FlightAware ADS-B (KBOS)
03:17PM 43.4510 -70.9510 209° Southwest 479 551 36,000  Level FlightAware ADS-B
03:18PM 43.4196 -70.9746 208° Southwest 478 550 36,000  Level FlightAware ADS-B (KASH)
03:18PM 43.3485 -71.0264 208° Southwest 477 549 36,000  Level FlightAware ADS-B (KBOS)
03:19PM 43.2926 -71.0670 208° Southwest 476 548 36,000  Level FlightAware ADS-B (KBOS)
03:19PM 43.3200 -71.0470 208° Southwest 477 549 36,000  Level FlightAware ADS-B
03:19PM 43.2202 -71.1195 208° Southwest 474 545 36,000  Level FlightAware ADS-B (KBOS)
03:20PM 43.1604 -71.1628 208° Southwest 473 544 36,000  Level FlightAware ADS-B (KBOS)
03:20PM 43.1044 -71.2032 208° Southwest 472 543 36,000  Level FlightAware ADS-B (KBOS)
03:21PM 43.0117 -71.2700 208° Southwest 470 541 36,000  Level FlightAware ADS-B (KASH)
03:22PM 42.9489 -71.3151 208° Southwest 469 540 36,000  Level FlightAware ADS-B (KBOS)
03:22PM 42.8879 -71.3588 208° Southwest 470 541 36,000  Level FlightAware ADS-B (KBOS)
03:23PM 42.8334 -71.3977 208° Southwest 470 541 36,000  Level FlightAware ADS-B (KBOS)
03:23PM 42.7703 -71.4427 208° Southwest 469 540 36,000  Level FlightAware ADS-B (KBOS)
03:24PM 42.6973 -71.4946 208° Southwest 469 540 36,000  Level FlightAware ADS-B (KASH)
03:24PM 42.6412 -71.5344 208° Southwest 460 529 36,000  Level FlightAware ADS-B (KASH)
03:25PM 42.5797 -71.5779 208° Southwest 460 529 36,000  Level FlightAware ADS-B (KASH)
03:26PM 42.5149 -71.6237 208° Southwest 466 536 36,000  Level FlightAware ADS-B (KBOS)
03:26PM 42.4364 -71.6790 208° Southwest 458 527 36,000  Level FlightAware ADS-B (KASH)
03:27PM 42.3784 -71.7198 208° Southwest 457 526 36,000  Level FlightAware ADS-B (KASH)
03:27PM 42.3208 -71.7603 208° Southwest 456 525 36,000  Level FlightAware ADS-B (KASH)
03:28PM 42.2361 -71.8195 208° Southwest 456 525 36,000  Level FlightAware ADS-B (KASH)
03:29PM 42.1633 -71.8703 208° Southwest 464 534 36,000  Level FlightAware ADS-B
03:29PM 42.0938 -71.9187 208° Southwest 455 524 36,000  Level FlightAware ADS-B (KASH)
03:30PM 42.0360 -71.9588 208° Southwest 455 524 36,000  Level FlightAware ADS-B (KASH)
03:31PM 41.9520 -72.0170 208° Southwest 453 521 36,000  Level FlightAware ADS-B (KASH)
03:31PM 41.8956 -72.0560 208° Southwest 452 520 36,000  Level FlightAware ADS-B (KASH)
03:32PM 41.8118 -72.1137 208° Southwest 453 521 36,000  Level FlightAware ADS-B (KASH)
03:32PM 41.7775 -72.1373 207° Southwest 459 528 36,000  Level FlightAware ADS-B
03:33PM 41.6669 -72.2131 208° Southwest 452 520 36,000  Level FlightAware ADS-B (KASH)
03:34PM 41.6100 -72.2520 207° Southwest 456 525 36,000  Level FlightAware ADS-B
03:35PM 41.5080 -72.3216 207° Southwest 453 521 36,000  Level FlightAware ADS-B
03:36PM 41.3876 -72.4034 207° Southwest 449 517 36,000  Level FlightAware ADS-B
03:37PM 41.2389 -72.5017 207° Southwest 449 517 36,000  Level Boston Center
03:38PM 41.1283 -72.5761 207° Southwest 449 517 36,000  Level Boston Center
03:39PM 41.0322 -72.6719 217° Southwest 436 502 36,000  Level Boston Center
03:40PM 40.9347 -72.7647 216° Southwest 433 498 36,000  Level Boston Center
03:41PM 40.8408 -72.8594 217° Southwest 432 497 36,000  Level Boston Center
03:42PM 40.7319 -72.9681 217° Southwest 432 497 36,000  Level Boston Center
03:43PM 40.6372 -73.0611 217° Southwest 429 494 36,000  Level Boston Center
03:44PM 40.5428 -73.1522 216° Southwest 425 489 36,000  Level Boston Center
03:45PM 40.4494 -73.2442 217° Southwest 423 487 36,000  Level Boston Center
03:46PM 40.3572 -73.3339 217° Southwest 417 480 36,000  Level Boston Center
03:47PM 40.2636 -73.4244 216° Southwest 416 479 36,000  Level Boston Center
03:48PM 40.1650 -73.5189 216° Southwest 415 478 36,000  Level Boston Center
03:49PM 40.1108 -73.5678 215° Southwest 428 493 36,000  Level Washington Center
03:50PM 40.0208 -73.6572 217° Southwest 395 455 36,000  Level Washington Center
03:54PM 39.6295 -74.0255 216° Southwest 414 476 36,000  Level FlightAware ADS-B (KPHL)
03:57PM 39.3426 -74.2939 216° Southwest 412 474 36,000  Level FlightAware ADS-B (KPHL)
03:58PM 39.2742 -74.3574 216° Southwest 411 473 36,000  Level FlightAware ADS-B (KPHL)
03:59PM 39.1303 -74.4907 216° Southwest 413 475 36,000  Level FlightAware ADS-B (KPHL)
04:01PM 39.0313 -74.5821 216° Southwest 413 475 36,000  Level FlightAware ADS-B (KILG)
04:02PM 38.8444 -74.7533 215° Southwest 412 474 36,000  Level FlightAware ADS-B (KILG)
04:03PM 38.7851 -74.8075 216° Southwest 417 480 36,000  Level FlightAware ADS-B (KILG)
04:04PM 38.7305 -74.8575 216° Southwest 414 476 36,000  Level FlightAware ADS-B (KILG)
04:06PM 38.5303 -75.0391 215° Southwest 417 480 36,000  Level FlightAware ADS-B (KILG)
04:07PM 38.4121 -75.1457 215° Southwest 418 481 36,000  Level FlightAware ADS-B (KWWD)
04:08PM 38.3545 -75.1975 215° Southwest 418 481 36,000  Level FlightAware ADS-B (KWWD)
04:08PM 38.2745 -75.2693 215° Southwest 418 481 36,000  Level FlightAware ADS-B (KWWD)
04:09PM 38.2291 -75.3099 215° Southwest 416 479 36,000  Level FlightAware ADS-B (KSBY)
04:10PM 38.2152 -75.3223 215° Southwest 416 479 36,000  Level FlightAware ADS-B (KSBY)
04:11PM 38.0946 -75.4301 215° Southwest 415 478 36,000  Level FlightAware ADS-B (KSBY)
04:12PM 37.9750 -75.5339 215° Southwest 420 483 36,000  Level Washington Center
04:13PM 37.8728 -75.6075 210° Southwest 425 489 36,000  Level Washington Center
04:14PM 37.7728 -75.6811 210° Southwest 425 489 36,000  Level Washington Center
04:15PM 37.6744 -75.7597 212° Southwest 425 489 36,000  Level Washington Center
04:16PM 37.5722 -75.8356 210° Southwest 425 489 36,000  Level Washington Center
04:17PM 37.4658 -75.8981 205° Southwest 425 489 36,000  Level Washington Center
04:18PM 37.3550 -75.9575 203° Southwest 431 496 36,000  Level Washington Center
04:19PM 37.2464 -76.0172 204° Southwest 431 496 36,000  Level Washington Center
04:20PM 37.1336 -76.0764 203° Southwest 437 503 36,000  Level Washington Center
04:21PM 37.0206 -76.1356 203° Southwest 437 503 36,000  Level Washington Center
04:22PM 36.8972 -76.1969 202° Southwest 443 510 36,000  Level Washington Center
04:23PM 36.8028 -76.2819 216° Southwest 431 496 36,000  Level Washington Center
04:24PM 36.7086 -76.3667 216° Southwest 431 496 36,000  Level Washington Center
04:25PM 36.6161 -76.4564 218° Southwest 426 490 36,000  Level Washington Center
04:26PM 36.5217 -76.5378 215° Southwest 426 490 36,000  Level Washington Center
04:27PM 36.4269 -76.6244 216° Southwest 426 490 36,000  Level Washington Center
04:28PM 36.3281 -76.7108 215° Southwest 431 496 36,000  Level Washington Center
04:29PM 36.2333 -76.7972 216° Southwest 431 496 36,000  Level Washington Center
04:30PM 36.1367 -76.8806 215° Southwest 431 496 36,000  Level Washington Center
04:31PM 36.0375 -76.9689 216° Southwest 431 496 36,000  Level Washington Center
04:32PM 35.9428 -77.0544 216° Southwest 431 496 36,000  Level Washington Center
04:33PM 35.8456 -77.1347 214° Southwest 431 496 36,000  Level Washington Center
04:34PM 35.7322 -77.1939 203° Southwest 431 496 36,000  Level Washington Center
04:35PM 35.6167 -77.2528 203° Southwest 438 504 36,000  Level Washington Center
04:36PM 35.5033 -77.3092 202° Southwest 448 516 36,000  Level Washington Center
04:37PM 35.3897 -77.3678 203° Southwest 448 516 36,000  Level Washington Center
04:38PM 35.2719 -77.4239 201° Southwest 448 516 36,000  Level Washington Center
04:39PM 35.1583 -77.4797 202° Southwest 448 516 36,000  Level Washington Center
04:40PM 35.0428 -77.5353 201° Southwest 448 516 36,000  Level Washington Center
04:41PM 34.9292 -77.5933 203° Southwest 448 516 36,000  Level Washington Center
04:42PM 34.8367 -77.6392 202° Southwest 448 516 36,000  Level Washington Center
04:43PM 34.7103 -77.7017 202° Southwest 448 516 36,000  Level Washington Center
04:44PM 34.5967 -77.7567 202° Southwest 443 510 36,000  Level Washington Center
04:45PM 34.4831 -77.8142 203° Southwest 443 510 36,000  Level Washington Center
04:46PM 34.2697 -77.9000 198° South 460 529 36,000  Level Jacksonville Center
04:47PM 34.1436 -77.9322 192° South 465 535 36,000  Level Jacksonville Center
04:48PM 34.0178 -77.9694 194° South 470 541 36,000  Level Jacksonville Center
04:49PM 33.8939 -78.0042 193° South 470 541 36,000  Level Jacksonville Center
04:50PM 33.7683 -78.0436 195° South 470 541 36,000  Level Jacksonville Center
04:51PM 33.6300 -78.0836 194° South 465 535 36,000  Level Jacksonville Center
04:52PM 33.5061 -78.1178 193° South 465 535 36,000  Level Jacksonville Center
04:53PM 33.3803 -78.1542 194° South 465 535 36,000  Level Jacksonville Center
04:54PM 33.2542 -78.1908 194° South 465 535 36,000  Level Jacksonville Center
04:55PM 33.1283 -78.2247 193° South 465 535 36,000  Level Jacksonville Center
04:56PM 33.0022 -78.2608 194° South 470 541 36,000  Level Jacksonville Center
04:57PM 32.8719 -78.2950 192° South 470 541 36,000  Level Jacksonville Center
04:58PM 32.7439 -78.3311 193° South 470 541 36,000  Level Jacksonville Center
04:59PM 32.6161 -78.3719 195° South 470 541 36,000  Level Jacksonville Center
05:00PM 32.4878 -78.4056 192° South 470 541 36,000  Level Jacksonville Center
05:01PM 32.3575 -78.4414 193° South 470 541 36,000  Level Jacksonville Center
05:02PM 32.2317 -78.4819 195° South 470 541 36,000  Level Jacksonville Center
05:03PM 32.1139 -78.5169 194° South 475 547 36,000  Level Jacksonville Center
05:04PM 31.9836 -78.5525 193° South 480 552 36,000  Level Jacksonville Center
05:05PM 31.8514 -78.5931 195° South 485 558 36,000  Level Jacksonville Center
05:06PM 31.7211 -78.6308 194° South 485 558 36,000  Level Jacksonville Center
05:07PM 31.5931 -78.6661 193° South 485 558 36,000  Level Jacksonville Center
05:08PM 31.4628 -78.7036 194° South 485 558 36,000  Level Jacksonville Center
05:09PM 31.3303 -78.7386 193° South 485 558 36,000  Level Jacksonville Center
05:10PM 31.1981 -78.7786 195° South 485 558 36,000  Level Jacksonville Center
05:11PM 31.0675 -78.8133 193° South 485 558 36,000  Level Jacksonville Center
05:12PM 30.9269 -78.8558 195° South 481 554 36,000  Level Jacksonville Center
05:13PM 30.7925 -78.8953 194° South 484 557 36,000  Level Jacksonville Center
05:14PM 30.6600 -78.9300 193° South 484 557 36,000  Level Jacksonville Center
05:15PM 30.5775 -78.9536 194° South 490 564 36,000  Level Miami Center
05:16PM 30.4478 -78.9894 193° South 475 547 36,000  Level Miami Center
05:17PM 30.3261 -79.0400 200° South 470 541 36,000  Level Miami Center
05:18PM 30.1919 -79.0875 197° South 484 557 36,000  Level Miami Center
05:19PM 30.0703 -79.1378 200° South 484 557 36,000  Level Miami Center
05:20PM 29.9633 -79.1881 202° Southwest 484 557 36,000  Level Miami Center
05:21PM 29.8331 -79.2333 197° South 484 557 36,000  Level Miami Center
05:22PM 29.7072 -79.2806 198° South 484 557 36,000  Level Miami Center
05:28PM 28.9294 -79.5708 198° South 484 557 36,000  Level FlightAware ADS-B (KMCO)
05:29PM 28.8206 -79.6117 198° South 484 557 36,000  Level FlightAware ADS-B (KMCO)
05:30PM 28.7399 -79.6420 198° South 484 557 36,000  Level FlightAware ADS-B (KMCO)
05:32PM 28.4812 -79.7388 198° South 480 552 36,000  Level FlightAware ADS-B (KMCO)
05:32PM 28.4119 -79.7645 198° South 479 551 36,000  Level FlightAware ADS-B (KMCO)
05:33PM 28.3482 -79.7883 198° South 478 550 36,000  Level FlightAware ADS-B (KMCO)
05:33PM 28.2863 -79.8113 198° South 478 550 36,000  Level FlightAware ADS-B (KMCO)
05:34PM 28.2249 -79.8341 198° South 478 550 36,000  Level FlightAware ADS-B (KMCO)
05:35PM 28.0965 -79.8816 198° South 479 551 36,000  Level FlightAware ADS-B (KMCO)
05:35PM 28.0339 -79.9048 198° South 479 551 36,000  Level FlightAware ADS-B (KMCO)
05:36PM 27.9776 -79.9255 198° South 480 552 36,000  Level FlightAware ADS-B (KMCO)
05:36PM 27.8847 -79.9599 198° South 482 555 36,000  Level FlightAware ADS-B (KMCO)
05:37PM 27.8226 -79.9827 198° South 483 556 36,000  Level FlightAware ADS-B (KMCO)
05:37PM 27.7608 -80.0055 198° South 484 557 36,000  Level FlightAware ADS-B (KMCO)
05:38PM 27.6707 -80.0385 198° South 485 558 36,000  Level FlightAware ADS-B (KMCO)
05:39PM 27.5840 -80.0703 198° South 486 559 36,000  Level FlightAware ADS-B (KMCO)
05:39PM 27.5123 -80.0967 198° South 486 559 36,000  Level FlightAware ADS-B (KMCO)
05:40PM 27.4316 -80.1263 198° South 486 559 36,000  Level FlightAware ADS-B (KMCO)
05:40PM 27.3671 -80.1499 198° South 487 560 36,000  Level FlightAware ADS-B (KMCO)
05:41PM 27.2806 -80.1814 198° South 486 559 36,000  Level FlightAware ADS-B (KMCO)
05:42PM 27.1754 -80.2194 198° South 484 557 36,000  Level FlightAware ADS-B (KMCO)
05:42PM 27.1160 -80.2410 198° South 482 555 36,000  Level FlightAware ADS-B (KMCO)
05:43PM 27.0075 -80.2806 198° South 481 554 36,000  Level FlightAware ADS-B (KMCO)
05:44PM 26.9176 -80.3132 198° South 479 551 36,000  Level FlightAware ADS-B (KMCO)
05:45PM 26.8352 -80.3429 198° South 479 551 36,000  Level FlightAware ADS-B (KMCO)
05:45PM 26.7543 -80.3719 198° South 481 554 36,000  Level FlightAware ADS-B (KMCO)
05:49PM 26.3272 -80.5255 198° South 485 558 36,000  Level FlightAware ADS-B (KMCO)
05:49PM 26.2397 -80.5568 198° South 483 556 36,000  Level FlightAware ADS-B (KMCO)
05:50PM 26.1286 -80.5961 198° South 484 557 36,000  Level Miami Center
05:51PM 26.0000 -80.6431 198° South 484 557 36,000  Level Miami Center
05:52PM 25.8714 -80.6897 198° South 484 557 36,000  Level Miami Center
05:53PM 25.7469 -80.7367 199° South 484 557 36,000  Level Miami Center
05:54PM 25.6206 -80.7831 198° South 484 557 36,000 -240 Level Miami Center
05:55PM 25.5267 -80.8492 212° Southwest 462 532 35,600 -540 Descending Miami Center
05:56PM 25.4283 -80.9311 217° Southwest 462 532 35,000 -300 Descending Miami Center
05:57PM 25.3422 -81.0269 225° Southwest 449 517 35,000  Level Miami Center
05:58PM 25.2581 -81.1228 226° Southwest 439 505 35,000  Level Miami Center
05:59PM 25.1739 -81.2186 226° Southwest 439 505 35,000  Level Miami Center
06:00PM 25.0894 -81.3097 224° Southwest 439 505 35,000  Level Miami Center
06:01PM 25.0053 -81.4075 226° Southwest 439 505 35,000 -60 Level Miami Center
06:02PM 24.9208 -81.5006 225° Southwest 439 505 34,900 -540 Descending Miami Center
06:03PM 24.8081 -81.5650 207° Southwest 445 512 34,000 -960 Descending Miami Center
06:04PM 24.6978 -81.6178 204° Southwest 445 512 33,000 -1,020 Descending Miami Center
06:05PM 24.5789 -81.6794 205° Southwest 456 525 32,000 -1,080 Descending Miami Center
06:06PM 24.4756 -81.7758 220° Southwest 451 519 30,900 -1,020 Descending Miami Center
06:07PM 24.4244 -81.8650 238° Southwest 409 471 30,000 -960 Descending Miami Center
06:08PM 24.3603 -81.9697 236° Southwest 409 471 29,000 -1,020 Descending Miami Center
06:09PM 24.2922 -82.0694 233° Southwest 414 476 28,000 -1,020 Descending Miami Center
06:10PM 24.2261 -82.1644 233° Southwest 414 476 27,000 -1,020 Descending Miami Center
06:11PM 24.1619 -82.2642 235° Southwest 414 476 26,000 -1,140 Descending Miami Center
06:12PM 24.1003 -82.3569 234° Southwest 403 464 24,800 -1,620 Descending Miami Center
06:13PM 24.0153 -82.4533 226° Southwest 396 456 22,800 -2,040 Descending Miami Center
06:15PM 23.8631 -82.4467 178° South  Level Estimated
06:22PM 23.0753 -82.4051 170° South  Level FlightAware Approximate
06:23PM 22.9891 -82.4091 180° South  Level Estimated
06:24PM 22.9891 -82.4091 180° South  Level Estimated
06:25PM 22.9891 -82.4091 180° South  Level Estimated
06:26PM 22.9891 -82.4091 180° South  Level Estimated
06:27PM 22.9891 -82.4091 180° South  Level Estimated
06:28PM 22.9891 -82.4091 180° South  Level Estimated
06:29PM 22.9891 -82.4091 180° South  Level Estimated
06:30PM 22.9891 -82.4091 180° South  Level Estimated
06:31PM 22.9891 -82.4091 180° South  Level Estimated
06:32PM 22.9891 -82.4091 180° South  Level Estimated
06:33PM 22.9891 -82.4091 180° South  Level Estimated
06:34PM 22.9891 -82.4091 180° South  Level Estimated
06:35PM 22.9891 -82.4091 180° South  Level Estimated
06:36PM 22.9891 -82.4091 180° South  Level Estimated
06:37PM 22.9891 -82.4091 180° South  Level Estimated
06:38PM 22.9891 -82.4091 180° South  Level Estimated
06:39PM 22.9891 -82.4091 180° South  Level Estimated
06:40PM 22.9891 -82.4091 180° South  Level Estimated
06:41PM 22.9891 -82.4091 180° South  Level Estimated
06:42PM 22.9891 -82.4091 180° South  Level Estimated
06:43PM 22.9891 -82.4091 180° South  Level Estimated
06:44PM 22.9891 -82.4091 180° South  Level Estimated